createdAt,value
2019-04-06T00:01:35.069Z,5.90
2019-04-06T00:04:04.234Z,5.90
2019-04-06T00:06:33.416Z,5.80
2019-04-06T00:09:02.694Z,5.80
2019-04-06T00:11:31.891Z,5.70
2019-04-06T00:14:01.086Z,5.70
2019-04-06T00:16:30.289Z,5.70
2019-04-06T00:18:59.447Z,5.60
2019-04-06T00:21:28.687Z,5.60
2019-04-06T00:23:57.849Z,5.50
2019-04-06T00:26:27.069Z,5.50
2019-04-06T00:28:56.243Z,5.50
2019-04-06T00:31:47.514Z,5.40
2019-04-06T00:34:16.819Z,5.40
2019-04-06T00:36:45.971Z,5.40
2019-04-06T00:39:15.165Z,5.40
2019-04-06T00:41:44.293Z,5.30
2019-04-06T00:44:13.448Z,5.30
2019-04-06T00:46:42.605Z,5.30
2019-04-06T00:49:11.747Z,5.20
2019-04-06T00:51:40.954Z,5.20
2019-04-06T00:54:10.095Z,5.20
2019-04-06T00:56:39.268Z,5.10
2019-04-06T00:59:08.409Z,5.20
2019-04-06T01:01:37.596Z,5.10
2019-04-06T01:04:06.790Z,5.10
2019-04-06T01:06:35.945Z,5.10
2019-04-06T01:09:08.907Z,5.10
2019-04-06T01:11:38.107Z,5.00
2019-04-06T01:14:07.346Z,5.00
2019-04-06T01:16:36.466Z,5.00
2019-04-06T01:19:05.679Z,4.90
2019-04-06T01:21:34.833Z,4.90
2019-04-06T01:24:03.973Z,4.90
2019-04-06T01:26:33.109Z,4.80
2019-04-06T01:29:02.282Z,4.80
2019-04-06T01:31:31.509Z,4.80
2019-04-06T01:34:00.855Z,4.70
2019-04-06T01:36:30.049Z,4.70
2019-04-06T01:38:59.198Z,4.60
2019-04-06T01:41:28.335Z,4.60
2019-04-06T01:43:57.482Z,4.50
2019-04-06T01:46:26.655Z,4.50
2019-04-06T01:48:55.800Z,4.40
2019-04-06T01:51:24.974Z,4.40
2019-04-06T01:53:54.113Z,4.30
2019-04-06T01:56:23.388Z,4.30
2019-04-06T01:58:54.107Z,4.30
2019-04-06T02:01:45.645Z,4.30
2019-04-06T02:04:14.827Z,4.30
2019-04-06T02:06:43.963Z,4.30
2019-04-06T02:09:13.120Z,4.20
2019-04-06T02:11:42.285Z,4.20
2019-04-06T02:14:11.480Z,4.20
2019-04-06T02:16:41.041Z,4.20
2019-04-06T02:19:10.215Z,4.20
2019-04-06T02:21:39.375Z,4.20
2019-04-06T02:24:08.552Z,4.10
2019-04-06T02:26:37.682Z,4.10
2019-04-06T02:29:06.923Z,4.10
2019-04-06T02:31:54.575Z,4.10
2019-04-06T02:34:35.446Z,4.10
2019-04-06T02:37:23.345Z,4.10
2019-04-06T02:40:29.916Z,4.10
2019-04-06T02:43:24.030Z,4.20
2019-04-06T02:45:53.197Z,4.20
2019-04-06T02:48:22.392Z,4.10
2019-04-06T02:50:51.743Z,4.10
2019-04-06T02:53:20.876Z,4.10
2019-04-06T02:55:50.004Z,4.10
2019-04-06T02:58:19.302Z,4.10
2019-04-06T03:00:48.765Z,4.10
2019-04-06T03:03:18.015Z,4.10
2019-04-06T03:05:47.287Z,4.10
2019-04-06T03:08:16.488Z,4.10
2019-04-06T03:10:45.620Z,4.10
2019-04-06T03:13:14.776Z,4.10
2019-04-06T03:15:44.110Z,4.10
2019-04-06T03:18:13.289Z,4.10
2019-04-06T03:20:42.430Z,4.00
2019-04-06T03:23:11.554Z,4.00
2019-04-06T03:25:40.731Z,4.00
2019-04-06T03:28:09.869Z,3.90
2019-04-06T03:30:39.057Z,3.80
2019-04-06T03:33:08.243Z,3.80
2019-04-06T03:35:37.757Z,3.80
2019-04-06T03:38:07.319Z,3.80
2019-04-06T03:40:36.470Z,3.80
2019-04-06T03:43:05.672Z,3.80
2019-04-06T03:45:34.813Z,3.80
2019-04-06T03:48:04.087Z,3.80
2019-04-06T03:50:33.437Z,3.80
2019-04-06T03:53:02.776Z,3.70
2019-04-06T03:55:31.934Z,3.80
2019-04-06T03:58:01.106Z,3.80
2019-04-06T04:00:30.256Z,3.70
2019-04-06T04:02:59.407Z,3.70
2019-04-06T04:05:28.561Z,3.70
2019-04-06T04:07:57.785Z,3.70
2019-04-06T04:10:33.672Z,3.60
2019-04-06T04:13:02.838Z,3.60
2019-04-06T04:15:32.034Z,3.60
2019-04-06T04:18:01.419Z,3.60
2019-04-06T04:20:30.790Z,3.50
2019-04-06T04:23:00.263Z,3.60
2019-04-06T04:25:29.412Z,3.60
2019-04-06T04:27:58.581Z,3.60
2019-04-06T04:30:33.342Z,3.60
2019-04-06T04:32:58.781Z,3.60
2019-04-06T04:35:28.307Z,3.60
2019-04-06T04:37:57.451Z,3.60
2019-04-06T04:40:26.701Z,3.70
2019-04-06T04:42:55.839Z,3.70
2019-04-06T04:45:25.016Z,3.70
2019-04-06T04:47:54.191Z,3.60
2019-04-06T04:50:23.351Z,3.70
2019-04-06T04:52:52.579Z,3.60
2019-04-06T04:55:21.727Z,3.70
2019-04-06T04:57:50.888Z,3.70
2019-04-06T05:00:21.515Z,3.60
2019-04-06T05:02:50.753Z,3.60
2019-04-06T05:05:19.905Z,3.60
2019-04-06T05:07:49.076Z,3.60
2019-04-06T05:10:18.273Z,3.60
2019-04-06T05:12:47.443Z,3.60
2019-04-06T05:15:23.203Z,3.60
2019-04-06T05:17:52.317Z,3.50
2019-04-06T05:20:23.785Z,3.60
2019-04-06T05:22:52.445Z,3.60
2019-04-06T05:25:21.583Z,3.60
2019-04-06T05:27:52.686Z,3.60
2019-04-06T05:30:21.587Z,3.60
2019-04-06T05:32:50.739Z,3.60
2019-04-06T05:35:19.863Z,3.60
2019-04-06T05:37:49.083Z,3.60
2019-04-06T05:40:18.272Z,3.60
2019-04-06T05:42:47.442Z,3.60
2019-04-06T05:45:16.603Z,3.60
2019-04-06T05:47:45.748Z,3.70
2019-04-06T05:50:15.099Z,3.70
2019-04-06T05:52:44.620Z,3.70
2019-04-06T05:55:13.935Z,3.80
2019-04-06T05:57:43.208Z,3.70
2019-04-06T06:00:12.712Z,3.80
2019-04-06T06:02:41.963Z,3.80
2019-04-06T06:05:11.258Z,3.80
2019-04-06T06:07:40.645Z,3.90
2019-04-06T06:10:09.884Z,3.90
2019-04-06T06:12:39.124Z,3.90
2019-04-06T06:15:08.411Z,4.00
2019-04-06T06:17:37.553Z,4.00
2019-04-06T06:20:08.508Z,4.10
2019-04-06T06:22:37.694Z,4.10
2019-04-06T06:25:07.865Z,4.20
2019-04-06T06:27:36.994Z,4.20
2019-04-06T06:30:07.244Z,4.20
2019-04-06T06:32:36.401Z,4.30
2019-04-06T06:35:06.526Z,4.40
2019-04-06T06:37:35.669Z,4.50
2019-04-06T06:40:05.264Z,4.50
2019-04-06T06:42:34.500Z,4.60
2019-04-06T06:45:03.975Z,4.70
2019-04-06T06:47:33.156Z,4.80
2019-04-06T06:50:02.309Z,4.90
2019-04-06T06:52:31.470Z,5.00
2019-04-06T06:55:00.744Z,5.00
2019-04-06T06:57:29.948Z,5.10
2019-04-06T06:59:59.126Z,5.20
2019-04-06T07:02:28.552Z,5.40
2019-04-06T07:04:58.031Z,5.50
2019-04-06T07:07:27.166Z,5.60
2019-04-06T07:10:04.694Z,5.70
2019-04-06T07:12:27.230Z,5.80
2019-04-06T07:14:56.392Z,5.80
2019-04-06T07:17:25.638Z,5.90
2019-04-06T07:19:54.828Z,6.00
2019-04-06T07:22:24.322Z,6.10
2019-04-06T07:24:53.860Z,6.20
2019-04-06T07:27:23.548Z,6.30
2019-04-06T07:29:52.840Z,6.50
2019-04-06T07:32:22.002Z,6.60
2019-04-06T07:34:51.283Z,6.60
2019-04-06T07:37:20.528Z,6.70
2019-04-06T07:39:49.717Z,6.80
2019-04-06T07:42:18.854Z,6.80
2019-04-06T07:44:48.024Z,6.90
2019-04-06T07:47:18.397Z,6.90
2019-04-06T07:49:47.534Z,7.00
2019-04-06T07:52:16.768Z,7.00
2019-04-06T07:54:45.965Z,7.10
2019-04-06T07:57:15.269Z,7.20
2019-04-06T07:59:44.745Z,7.40
2019-04-06T08:02:14.117Z,7.50
2019-04-06T08:04:43.691Z,7.70
2019-04-06T08:07:12.954Z,7.80
2019-04-06T08:09:42.155Z,7.90
2019-04-06T08:12:11.283Z,8.00
2019-04-06T08:14:40.423Z,8.20
2019-04-06T08:17:09.816Z,8.30
2019-04-06T08:19:39.063Z,8.40
2019-04-06T08:22:08.232Z,8.50
2019-04-06T08:24:37.428Z,8.70
2019-04-06T08:27:07.159Z,9.00
2019-04-06T08:29:36.343Z,9.10
2019-04-06T08:32:05.614Z,9.30
2019-04-06T08:34:34.901Z,9.40
2019-04-06T08:37:04.171Z,9.40
2019-04-06T08:39:33.379Z,9.50
2019-04-06T08:42:02.559Z,9.60
2019-04-06T08:44:31.703Z,9.70
2019-04-06T08:47:00.867Z,9.80
2019-04-06T08:49:30.103Z,9.90
2019-04-06T08:51:59.389Z,10.00
2019-04-06T08:54:28.711Z,10.10
2019-04-06T08:56:57.859Z,10.30
2019-04-06T08:59:27.079Z,10.40
2019-04-06T09:01:56.235Z,10.50
2019-04-06T09:04:25.383Z,10.60
2019-04-06T09:06:54.548Z,10.80
2019-04-06T09:09:23.702Z,11.00
2019-04-06T09:11:53.005Z,11.20
2019-04-06T09:14:22.189Z,11.30
2019-04-06T09:16:51.330Z,11.50
2019-04-06T09:19:20.716Z,11.60
2019-04-06T09:21:50.160Z,11.70
2019-04-06T09:24:19.416Z,11.80
2019-04-06T09:26:48.867Z,12.00
2019-04-06T09:29:23.846Z,12.20
2019-04-06T09:31:49.277Z,12.30
2019-04-06T09:34:18.450Z,12.40
2019-04-06T09:36:47.635Z,12.60
2019-04-06T09:39:17.158Z,12.80
2019-04-06T09:41:46.268Z,12.90
2019-04-06T09:44:39.805Z,13.10
2019-04-06T09:47:17.971Z,13.20
2019-04-06T09:50:16.286Z,13.30
2019-04-06T09:52:55.113Z,13.50
2019-04-06T09:55:55.578Z,13.50
2019-04-06T09:58:42.336Z,13.40
2019-04-06T10:01:37.312Z,13.50
2019-04-06T10:04:17.007Z,13.60
2019-04-06T10:07:03.544Z,13.70
2019-04-06T10:09:51.976Z,13.80
2019-04-06T10:12:38.982Z,13.90
2019-04-06T10:15:27.610Z,14.10
2019-04-06T10:18:16.123Z,14.20
2019-04-06T10:21:10.292Z,14.30
2019-04-06T10:24:10.664Z,14.30
2019-04-06T10:26:58.818Z,14.40
2019-04-06T10:29:49.588Z,14.40
2019-04-06T10:32:35.929Z,14.30
2019-04-06T10:35:23.387Z,14.40
2019-04-06T10:38:23.911Z,14.40
2019-04-06T10:41:04.788Z,14.60
2019-04-06T10:43:51.566Z,15.00
2019-04-06T10:46:33.304Z,15.30
2019-04-06T10:49:30.694Z,15.60
2019-04-06T10:52:21.925Z,15.80
2019-04-06T10:55:03.008Z,15.90
2019-04-06T10:57:45.880Z,16.10
2019-04-06T11:00:34.265Z,16.20
2019-04-06T11:03:22.528Z,16.20
2019-04-06T11:06:01.858Z,16.20
2019-04-06T11:08:50.064Z,16.20
2019-04-06T11:11:38.408Z,16.30
2019-04-06T11:14:32.986Z,16.30
2019-04-06T11:17:33.792Z,16.50
2019-04-06T11:20:11.596Z,16.60
2019-04-06T11:22:52.977Z,16.60
2019-04-06T11:25:36.012Z,16.70
2019-04-06T11:28:17.787Z,16.90
2019-04-06T11:31:08.885Z,17.10
2019-04-06T11:33:55.634Z,17.10
2019-04-06T11:36:42.016Z,17.10
2019-04-06T11:39:28.838Z,16.70
2019-04-06T11:42:13.699Z,16.50
2019-04-06T11:44:52.891Z,16.40
2019-04-06T11:47:33.348Z,16.40
2019-04-06T11:50:21.569Z,16.30
2019-04-06T11:53:08.699Z,16.40
2019-04-06T11:56:14.867Z,16.50
2019-04-06T11:59:06.226Z,16.70
2019-04-06T12:01:54.403Z,17.00
2019-04-06T12:04:39.223Z,17.20
2019-04-06T12:07:27.403Z,17.30
2019-04-06T12:10:15.852Z,17.40
2019-04-06T12:13:04.381Z,17.40
2019-04-06T12:15:54.210Z,17.60
2019-04-06T12:18:36.163Z,17.90
2019-04-06T12:21:18.809Z,18.20
2019-04-06T12:24:05.955Z,18.30
2019-04-06T12:26:52.890Z,18.30
2019-04-06T12:29:29.742Z,18.40
2019-04-06T12:32:24.021Z,18.60
2019-04-06T12:34:59.626Z,18.80
2019-04-06T12:37:57.527Z,19.00
2019-04-06T12:40:33.877Z,19.10
2019-04-06T12:43:13.561Z,19.20
2019-04-06T12:46:00.402Z,19.30
2019-04-06T12:48:54.381Z,19.50
2019-04-06T12:51:57.657Z,19.60
2019-04-06T12:54:44.925Z,19.70
2019-04-06T12:57:23.437Z,19.50
2019-04-06T13:00:20.820Z,19.50
2019-04-06T13:03:09.129Z,19.70
2019-04-06T13:06:03.476Z,19.70
2019-04-06T13:08:44.406Z,19.60
2019-04-06T13:11:34.713Z,19.30
2019-04-06T13:14:19.553Z,19.30
2019-04-06T13:17:22.897Z,19.40
2019-04-06T13:20:11.115Z,19.50
2019-04-06T13:23:00.487Z,19.40
2019-04-06T13:25:48.943Z,19.30
2019-04-06T13:28:43.312Z,18.90
2019-04-06T13:31:40.511Z,18.80
2019-04-06T13:34:21.979Z,18.50
2019-04-06T13:37:10.293Z,18.10
2019-04-06T13:39:52.123Z,17.90
2019-04-06T13:42:34.303Z,17.70
2019-04-06T13:45:34.880Z,17.70
2019-04-06T13:48:32.037Z,17.50
2019-04-06T13:51:11.944Z,17.40
2019-04-06T13:53:50.129Z,17.30
2019-04-06T13:56:50.917Z,17.10
2019-04-06T13:59:32.376Z,17.00
2019-04-06T14:02:09.315Z,17.00
2019-04-06T14:05:04.047Z,16.90
2019-04-06T14:07:51.327Z,17.00
2019-04-06T14:10:36.201Z,17.10
2019-04-06T14:13:39.872Z,17.20
2019-04-06T14:16:20.985Z,17.20
2019-04-06T14:19:15.219Z,17.30
2019-04-06T14:21:56.510Z,17.40
2019-04-06T14:24:38.907Z,17.60
2019-04-06T14:27:24.683Z,17.80
2019-04-06T14:30:12.353Z,17.90
2019-04-06T14:32:52.557Z,18.00
2019-04-06T14:35:50.646Z,18.30
2019-04-06T14:38:44.934Z,18.50
2019-04-06T14:41:31.941Z,18.60
2019-04-06T14:44:14.642Z,18.50
2019-04-06T14:47:06.235Z,18.30
2019-04-06T14:49:48.924Z,18.30
2019-04-06T14:52:25.188Z,18.30
2019-04-06T14:55:03.502Z,18.10
2019-04-06T14:57:39.782Z,17.80
2019-04-06T15:00:20.853Z,17.40
2019-04-06T15:03:09.079Z,17.10
2019-04-06T15:06:12.678Z,16.80
2019-04-06T15:09:01.107Z,16.50
2019-04-06T15:11:52.706Z,16.40
2019-04-06T15:14:38.647Z,16.50
2019-04-06T15:17:30.086Z,16.50
2019-04-06T15:20:08.350Z,16.40
2019-04-06T15:23:02.365Z,16.30
2019-04-06T15:25:56.380Z,16.30
2019-04-06T15:28:43.326Z,16.50
2019-04-06T15:31:49.843Z,16.70
2019-04-06T15:34:36.989Z,16.80
2019-04-06T15:37:13.606Z,16.60
2019-04-06T15:40:00.529Z,16.50
2019-04-06T15:42:41.610Z,16.60
2019-04-06T15:45:36.413Z,16.60
2019-04-06T15:48:36.627Z,16.50
2019-04-06T15:51:13.369Z,16.50
2019-04-06T15:54:13.676Z,16.40
2019-04-06T15:57:04.894Z,16.30
2019-04-06T15:59:43.529Z,16.10
2019-04-06T16:02:31.706Z,15.90
2019-04-06T16:05:20.062Z,16.00
2019-04-06T16:07:57.280Z,16.00
2019-04-06T16:10:49.141Z,15.90
2019-04-06T16:13:42.226Z,15.90
2019-04-06T16:16:15.399Z,16.00
2019-04-06T16:18:52.995Z,15.90
2019-04-06T16:21:40.126Z,15.90
2019-04-06T16:24:31.156Z,15.90
2019-04-06T16:27:19.743Z,16.10
2019-04-06T16:29:58.486Z,16.30
2019-04-06T16:32:45.513Z,16.50
2019-04-06T16:35:45.889Z,16.70
2019-04-06T16:38:34.245Z,16.90
2019-04-06T16:41:31.364Z,17.10
2019-04-06T16:44:25.767Z,17.10
2019-04-06T16:47:26.605Z,17.10
2019-04-06T16:50:18.093Z,17.00
2019-04-06T16:53:04.821Z,16.80
2019-04-06T16:55:56.500Z,16.60
2019-04-06T16:58:53.935Z,16.50
2019-04-06T17:01:45.174Z,16.20
2019-04-06T17:04:27.388Z,15.90
2019-04-06T17:07:08.159Z,15.70
2019-04-06T17:10:02.407Z,15.50
2019-04-06T17:12:45.534Z,15.30
2019-04-06T17:15:33.925Z,15.10
2019-04-06T17:18:28.751Z,15.00
2019-04-06T17:21:29.146Z,14.90
2019-04-06T17:24:16.051Z,14.80
2019-04-06T17:27:00.295Z,14.60
2019-04-06T17:29:49.773Z,14.50
2019-04-06T17:32:35.489Z,14.40
2019-04-06T17:35:21.742Z,14.30
2019-04-06T17:38:08.921Z,14.20
2019-04-06T17:40:49.459Z,14.10
2019-04-06T17:43:43.046Z,14.00
2019-04-06T17:46:36.958Z,13.90
2019-04-06T17:49:37.201Z,13.90
2019-04-06T17:52:28.192Z,13.80
2019-04-06T17:55:13.742Z,13.80
2019-04-06T17:57:55.095Z,13.70
2019-04-06T18:00:32.694Z,13.70
2019-04-06T18:03:30.042Z,13.60
2019-04-06T18:06:12.433Z,13.50
2019-04-06T18:08:49.071Z,13.50
2019-04-06T18:11:29.676Z,13.40
2019-04-06T18:13:58.848Z,13.40
2019-04-06T18:16:34.527Z,13.30
2019-04-06T18:19:03.679Z,13.20
2019-04-06T18:21:32.824Z,13.10
2019-04-06T18:24:02.039Z,13.00
2019-04-06T18:26:31.224Z,13.00
2019-04-06T18:29:00.638Z,12.80
2019-04-06T18:31:39.345Z,12.80
2019-04-06T18:34:08.561Z,12.70
2019-04-06T18:36:59.565Z,12.60
2019-04-06T18:39:28.737Z,12.50
2019-04-06T18:41:57.869Z,12.40
2019-04-06T18:44:27.424Z,12.30
2019-04-06T18:46:56.739Z,12.20
2019-04-06T18:49:26.249Z,12.10
2019-04-06T18:51:55.395Z,12.10
2019-04-06T18:54:24.784Z,12.00
2019-04-06T18:56:53.911Z,11.90
2019-04-06T18:59:23.245Z,11.90
2019-04-06T19:01:52.575Z,11.80
2019-04-06T19:04:21.769Z,11.70
2019-04-06T19:06:50.967Z,11.70
2019-04-06T19:09:23.711Z,11.60
2019-04-06T19:11:55.335Z,11.60
2019-04-06T19:14:22.581Z,11.50
2019-04-06T19:16:51.779Z,11.50
2019-04-06T19:19:21.027Z,11.50
2019-04-06T19:21:51.676Z,11.40
2019-04-06T19:24:20.821Z,11.40
2019-04-06T19:26:50.085Z,11.30
2019-04-06T19:29:19.246Z,11.30
2019-04-06T19:31:48.416Z,11.30
2019-04-06T19:34:17.589Z,11.30
2019-04-06T19:36:46.839Z,11.30
2019-04-06T19:39:16.140Z,11.30
2019-04-06T19:41:45.394Z,11.30
2019-04-06T19:44:14.719Z,11.20
2019-04-06T19:46:44.384Z,11.20
2019-04-06T19:49:14.217Z,11.20
2019-04-06T19:51:44.197Z,11.10
2019-04-06T19:54:13.766Z,11.10
2019-04-06T19:56:43.002Z,11.00
2019-04-06T19:59:13.572Z,11.00
2019-04-06T20:01:43.124Z,10.90
2019-04-06T20:04:12.290Z,10.80
2019-04-06T20:06:41.463Z,10.80
2019-04-06T20:09:10.816Z,10.70
2019-04-06T20:11:40.314Z,10.60
2019-04-06T20:14:09.630Z,10.60
2019-04-06T20:16:38.824Z,10.60
2019-04-06T20:19:07.964Z,10.60
2019-04-06T20:21:37.417Z,10.50
2019-04-06T20:24:07.209Z,10.50
2019-04-06T20:26:36.403Z,10.40
2019-04-06T20:29:06.340Z,10.30
2019-04-06T20:31:36.238Z,10.30
2019-04-06T20:34:05.482Z,10.20
2019-04-06T20:36:35.164Z,10.20
2019-04-06T20:39:06.721Z,10.20
2019-04-06T20:41:35.940Z,10.10
2019-04-06T20:44:05.431Z,10.10
2019-04-06T20:46:35.186Z,10.10
2019-04-06T20:49:04.771Z,10.00
2019-04-06T20:51:34.367Z,10.00
2019-04-06T20:54:04.300Z,9.90
2019-04-06T20:56:33.788Z,9.80
2019-04-06T20:59:03.048Z,9.80
2019-04-06T21:01:32.380Z,9.70
2019-04-06T21:04:03.104Z,9.60
2019-04-06T21:06:32.558Z,9.60
2019-04-06T21:09:02.154Z,9.50
2019-04-06T21:11:31.397Z,9.40
2019-04-06T21:14:00.563Z,9.40
2019-04-06T21:16:29.842Z,9.30
2019-04-06T21:18:59.091Z,9.20
2019-04-06T21:21:28.272Z,9.10
2019-04-06T21:23:57.461Z,9.00
2019-04-06T21:26:26.627Z,9.00
2019-04-06T21:28:55.744Z,9.00
2019-04-06T21:31:25.334Z,8.90
2019-04-06T21:33:55.002Z,8.80
2019-04-06T21:36:25.490Z,8.80
2019-04-06T21:38:54.999Z,8.70
2019-04-06T21:41:24.914Z,8.70
2019-04-06T21:43:55.571Z,8.70
2019-04-06T21:46:25.007Z,8.70
2019-04-06T21:48:54.149Z,8.80
2019-04-06T21:51:23.304Z,8.80
2019-04-06T21:53:52.961Z,8.70
2019-04-06T21:56:22.505Z,8.70
2019-04-06T21:58:51.879Z,8.70
2019-04-06T22:01:22.981Z,8.70
2019-04-06T22:03:52.378Z,8.70
2019-04-06T22:06:24.164Z,8.70
2019-04-06T22:08:52.580Z,8.60
2019-04-06T22:11:21.989Z,8.70
2019-04-06T22:13:51.335Z,8.70
2019-04-06T22:16:20.615Z,8.70
2019-04-06T22:18:50.055Z,8.70
2019-04-06T22:21:19.222Z,8.50
2019-04-06T22:23:48.697Z,8.30
2019-04-06T22:26:18.251Z,8.30
2019-04-06T22:28:48.043Z,8.20
2019-04-06T22:31:17.704Z,8.00
2019-04-06T22:33:46.938Z,7.90
2019-04-06T22:36:16.080Z,7.80
2019-04-06T22:38:45.196Z,7.70
2019-04-06T22:41:14.334Z,7.70
2019-04-06T22:43:43.528Z,7.70
2019-04-06T22:46:12.772Z,7.70
2019-04-06T22:48:42.566Z,7.70
2019-04-06T22:51:12.049Z,7.70
2019-04-06T22:53:41.174Z,7.70
2019-04-06T22:56:10.327Z,7.60
2019-04-06T22:58:39.953Z,7.60
2019-04-06T23:01:11.710Z,7.60
2019-04-06T23:04:02.912Z,7.50
2019-04-06T23:06:36.662Z,7.50
2019-04-06T23:09:08.269Z,7.50
2019-04-06T23:11:38.301Z,7.50
2019-04-06T23:14:07.542Z,7.50
2019-04-06T23:16:36.995Z,7.50
2019-04-06T23:19:06.313Z,7.40
2019-04-06T23:21:36.181Z,7.40
2019-04-06T23:24:05.564Z,7.30
2019-04-06T23:26:34.772Z,7.20
2019-04-06T23:29:03.928Z,7.00
2019-04-06T23:31:33.481Z,6.80
2019-04-06T23:34:03.303Z,6.70
2019-04-06T23:36:32.979Z,6.60
2019-04-06T23:39:02.413Z,6.50
2019-04-06T23:41:32.221Z,6.40
2019-04-06T23:44:01.767Z,6.40
2019-04-06T23:46:30.910Z,6.40
2019-04-06T23:49:02.307Z,6.50
2019-04-06T23:51:31.393Z,6.50
2019-04-06T23:54:00.836Z,6.60
2019-04-06T23:56:30.000Z,6.60
2019-04-06T23:58:59.212Z,6.70
